Aeroporto :
LOGIN :

Iscrizione | Disclaimer

   EN    FR    IT 

 










Sommario :    VFR   VFR Marginale   IFR   IFR Intensivo   IFR Molto Intensivo
Visibilità : 
Base nubi : 
>= 8 km
>= 3000ft
5 / 8 km
1000 / 3000 ft
1500m / 5 km
500 / 1000 ft
800 / 1500m
200 / 500 ft
< 800m
< 200 ft
Simboli :   Temporali  Nebbia  Neve Forte  Precipitazioni Forti  Vento > 20 kt
SIGMETs :   Varie  Temporali  Ghiacco  Turbolenza  Onda orograficha  Ceneri Vulcaniche






- Altitudine del aeroporto : 325 ft
- Codice IATA : BES


LFRB - Brest

ULTIMO METAR :
  • 242300Z AUTO 04006KT 9000 NSC 10/09 Q1034 BECMG 3000 BR BKN003

METARs OBSOLETI :
  • 242230Z AUTO 04007KT CAVOK 10/09 Q1034 BECMG 3000 BR BKN003
  • 242200Z AUTO 04006KT CAVOK 10/09 Q1034 NOSIG
  • 242130Z AUTO 02006KT CAVOK 11/09 Q1034 NOSIG
  • 242100Z AUTO 02006KT CAVOK 11/09 Q1034 NOSIG
  • 242030Z AUTO 02006KT CAVOK 11/09 Q1034 NOSIG

TAF TAF LFRB
Valido dal 24 a 18 ore il 26 a 00 ore UTC


241700Z 2418/2524 36010KT CAVOK
BECMG 2500/2502 VRB05KT 3000 BR BKN003
PROB40
TEMPO 2502/2505 0500 FG VV///
BECMG 2505/2507 9999 NSW SCT020
BECMG 2512/2515 01010KT
ATIS : +33 2 98 32 02 71



MetMap, La meteo Aeronautica in un colpo d'occhio ! - Copyright ORBIFLY Dicembre 2007 - Disclaimer

ORBIFLY MET'MAP TEAM :

Programmazione e sviluppo : Alexandra Zaïnal
Concezione : Baudouin d'Aumeries
Aiuto per la programmazione : Marc-Olivier Méhu
Supporto tecnico e logistico : Manuel Goepfert
Aiuto per la traduzione : Arnaldo La Scala

Contatto : metmap@orbifly.com




FONTI E CREDITI :

   NOAA